Log in

Login to your account

Username *
Password *
Remember Me

Please enter the email address associated with your User account. Your username will be emailed to the email address on file.

Nous contacter

 Téléphone : +33 (0)4 79 54 41 81

Coordonnées détaillées et accès : cliquez ici

facebook 770688 960 720  logo instagram large

[source: ADDS]
METAR / TAF
LFLB 020800Z AUTO VRB03KT 9999 BKN064 M00/M01 Q1032 NOSIG =
TAF LFLB 020800Z 0209/0309 VRB02KT CAVOK PROB30 TEMPO 0300/0309 BKN030

SR / SS: 06:56 / 16:43 UTC (Lever/Coucher du soleil le 2023-02-02)
JSN Boot template designed by JoomlaShine.com